EDT,Max TemperatureF,Mean TemperatureF,Min TemperatureF,Max Dew PointF,MeanDew PointF,Min DewpointF,Max Humidity, Mean Humidity, Min Humidity, Max Sea Level PressureIn, Mean Sea Level PressureIn, Min Sea Level PressureIn, Max VisibilityMiles, Mean VisibilityMiles, Min VisibilityMiles, Max Wind SpeedMPH, Mean Wind SpeedMPH, Max Gust SpeedMPH,PrecipitationIn, CloudCover, Events, WindDirDegrees
2013-5-1,78,64,50,59,55,50,100,74,47,30.23,30.17,30.07,10,9,2,12,4,17,0.00,0,,117
2013-5-2,75,64,53,55,50,45,88,64,41,30.25,30.20,30.13,10,10,10,17,6,22,0.00,0,,107
2013-5-3,73,64,55,57,48,36,82,57,27,30.13,30.09,30.05,10,10,10,18,7,25,0.00,1,,110
2013-5-4,69,63,57,52,43,36,77,51,30,30.12,30.08,30.05,10,10,10,18,11,25,0.00,0,,106
2013-5-5,71,63,55,48,43,36,77,51,28,30.09,30.05,30.01,10,10,7,17,9,24,0.00,0,,96
2013-5-6,68,59,50,48,45,41,76,58,45,30.06,30.01,29.98,10,10,10,13,7,,0.00,0,,93
2013-5-7,73,62,51,55,50,41,82,66,47,30.05,30.01,29.98,10,10,5,14,4,18,0.00,1,,99
2013-5-8,75,65,55,57,52,45,88,63,43,30.01,29.97,29.93,10,10,3,10,4,,0.00,4,Rain,45
2013-5-9,78,64,50,57,52,45,100,64,32,29.97,29.94,29.90,10,8,0,9,2,,0.00,1,Fog,127
2013-5-10,73,60,46,63,57,41,94,80,56,29.92,29.80,29.74,10,9,3,20,9,26,0.00,7,Rain,254
2013-5-11,60,50,39,48,43,36,93,79,59,29.91,29.84,29.76,10,10,7,25,10,33,0.00,7,Rain,288
2013-5-12,51,44,37,36,31,25,93,64,40,30.09,29.97,29.89,10,10,10,26,12,33,0.00,5,,275
2013-5-13,55,42,28,34,26,19,93,56,25,30.17,30.12,30.08,10,10,10,15,4,21,0.00,1,,295
2013-5-14,78,61,44,57,43,30,82,53,34,30.11,29.90,29.71,10,10,10,17,7,23,0.00,3,Rain,189
2013-5-15,86,72,59,61,51,41,94,47,20,29.78,29.70,29.61,10,10,10,26,10,33,0.00,0,Rain,275
2013-5-16,84,68,51,48,44,37,82,44,21,30.00,29.87,29.77,10,10,10,13,5,21,0.00,1,,311
2013-5-17,69,60,51,48,44,36,76,55,39,30.14,30.09,30.01,10,10,10,14,8,20,0.00,1,,84
2013-5-18,71,63,55,54,48,43,77,58,46,30.14,30.09,30.05,10,10,10,17,8,23,0.00,1,,99
2013-5-19,82,68,53,64,58,48,94,71,51,30.04,29.97,29.91,10,10,10,13,6,16,0.00,0,,114
2013-5-20,91,76,62,72,65,61,100,70,36,29.94,29.87,29.79,10,9,5,20,4,28,0.00,1,,180
2013-5-21,87,80,73,68,62,55,78,57,35,29.83,29.78,29.72,10,10,7,22,8,29,0.00,1,Rain,218
2013-5-22,82,73,64,66,63,55,88,71,39,29.76,29.71,29.64,10,10,7,23,8,31,0.00,4,Rain,216
2013-5-23,69,56,44,63,54,39,94,88,73,30.13,29.85,29.71,10,8,4,18,9,31,0.00,6,Rain,291
2013-5-24,57,50,42,41,38,34,93,67,44,30.33,30.27,30.13,10,10,10,15,7,21,0.00,3,,348
2013-5-25,66,52,37,43,38,34,100,61,32,30.40,30.33,30.26,10,10,4,12,3,,0.00,1,,81
2013-5-26,69,54,39,45,38,30,100,56,28,30.35,30.28,30.22,10,10,7,12,2,17,0.00,0,,113
2013-5-27,60,54,48,55,48,39,100,80,52,30.26,30.16,30.00,10,9,2,15,5,22,0.00,4,Rain,105
2013-5-28,78,66,55,72,63,55,100,86,65,29.99,29.90,29.83,10,7,1,16,5,22,0.00,6,Rain,182
2013-5-29,84,76,68,70,65,63,94,66,48,30.00,29.93,29.83,10,10,7,23,13,31,0.00,2,,238
2013-5-30,87,76,66,72,67,63,94,73,45,30.07,30.02,29.96,10,10,4,17,5,28,0.00,2,Rain,197
2013-5-31,84,76,68,70,67,64,94,75,55,30.01,29.94,29.88,10,10,5,23,7,30,0.00,2,Rain,200